createdAt,value
2022-11-25T00:01:40.427Z,-0.75
2022-11-25T00:04:08.745Z,-0.63
2022-11-25T00:06:38.967Z,-0.51
2022-11-25T00:09:11.482Z,-0.28
2022-11-25T00:11:42.039Z,-0.19
2022-11-25T00:14:14.899Z,-0.20
2022-11-25T00:16:48.338Z,-0.18
2022-11-25T00:19:18.025Z,-0.19
2022-11-25T00:21:47.903Z,-0.15
2022-11-25T00:24:18.495Z,-0.04
2022-11-25T00:26:46.881Z,0.15
2022-11-25T00:29:15.669Z,0.28
2022-11-25T00:31:44.720Z,0.38
2022-11-25T00:34:14.352Z,0.50
2022-11-25T00:36:43.316Z,0.51
2022-11-25T00:39:15.874Z,0.53
2022-11-25T00:42:02.452Z,0.57
2022-11-25T00:44:37.721Z,0.49
2022-11-25T00:47:10.333Z,0.31
2022-11-25T00:49:40.124Z,0.21
2022-11-25T00:52:09.766Z,0.12
2022-11-25T00:54:39.750Z,-0.02
2022-11-25T00:57:08.058Z,-0.13
2022-11-25T00:59:36.539Z,-0.16
2022-11-25T01:02:05.438Z,-0.21
2022-11-25T01:04:34.463Z,-0.37
2022-11-25T01:07:03.011Z,-0.49
2022-11-25T01:09:32.299Z,-0.56
2022-11-25T01:12:02.278Z,-0.67
2022-11-25T01:14:32.810Z,-0.80
2022-11-25T01:17:01.516Z,-0.81
2022-11-25T01:19:30.327Z,-0.83
2022-11-25T01:22:01.616Z,-0.78
2022-11-25T01:24:30.215Z,-0.78
2022-11-25T01:26:58.533Z,-0.77
2022-11-25T01:29:29.478Z,-0.75
2022-11-25T01:31:58.078Z,-0.74
2022-11-25T01:34:28.569Z,-0.65
2022-11-25T01:36:58.792Z,-0.60
2022-11-25T01:39:32.515Z,-0.61
2022-11-25T01:42:02.432Z,-0.64
2022-11-25T01:44:36.345Z,-0.72
2022-11-25T01:47:13.255Z,-0.79
2022-11-25T01:49:47.235Z,-0.77
2022-11-25T01:52:23.073Z,-0.78
2022-11-25T01:54:55.290Z,-0.74
2022-11-25T01:57:31.711Z,-0.82
2022-11-25T02:00:05.613Z,-0.88
2022-11-25T02:02:46.086Z,-0.87
2022-11-25T02:05:19.298Z,-0.88
2022-11-25T02:07:54.038Z,-0.92
2022-11-25T02:10:28.402Z,-0.94
2022-11-25T02:12:57.454Z,-0.94
2022-11-25T02:15:29.822Z,-0.98
2022-11-25T02:17:58.474Z,-1.00
2022-11-25T02:20:27.469Z,-0.99
2022-11-25T02:23:04.521Z,-0.97
2022-11-25T02:25:37.267Z,-1.06
2022-11-25T02:28:14.656Z,-1.25
2022-11-25T02:30:44.194Z,-1.25
2022-11-25T02:33:14.079Z,-1.27
2022-11-25T02:35:45.541Z,-1.25
2022-11-25T02:38:17.482Z,-1.30
2022-11-25T02:40:49.868Z,-1.35
2022-11-25T02:43:19.011Z,-1.35
2022-11-25T02:45:58.853Z,-1.36
2022-11-25T02:48:52.918Z,-1.36
2022-11-25T02:51:22.592Z,-1.35
2022-11-25T02:53:52.236Z,-1.37
2022-11-25T02:56:26.816Z,-1.39
2022-11-25T02:58:55.198Z,-1.44
2022-11-25T03:01:29.828Z,-1.46
2022-11-25T03:03:58.569Z,-1.45
2022-11-25T03:06:29.685Z,-1.46
2022-11-25T03:08:58.114Z,-1.47
2022-11-25T03:11:43.727Z,-1.46
2022-11-25T03:14:12.566Z,-1.45
2022-11-25T03:16:41.067Z,-1.40
2022-11-25T03:19:09.651Z,-1.33
2022-11-25T03:21:37.997Z,-1.21
2022-11-25T03:24:07.758Z,-1.12
2022-11-25T03:26:37.482Z,-1.06
2022-11-25T03:29:07.619Z,-1.00
2022-11-25T03:31:37.008Z,-0.82
2022-11-25T03:34:05.725Z,-0.75
2022-11-25T03:36:34.429Z,-0.77
2022-11-25T03:39:03.408Z,-0.70
2022-11-25T03:41:32.086Z,-0.67
2022-11-25T03:44:02.101Z,-0.65
2022-11-25T03:46:30.591Z,-0.63
2022-11-25T03:48:59.759Z,-0.49
2022-11-25T03:51:29.309Z,-0.52
2022-11-25T03:53:58.140Z,-0.51
2022-11-25T03:56:27.000Z,-0.50
2022-11-25T03:58:55.731Z,-0.51
2022-11-25T04:01:25.741Z,-0.52
2022-11-25T04:03:54.283Z,-0.57
2022-11-25T04:06:23.946Z,-0.59
2022-11-25T04:08:54.618Z,-0.58
2022-11-25T04:11:43.409Z,-0.63
2022-11-25T04:14:12.315Z,-0.80
2022-11-25T04:16:42.100Z,-0.84
2022-11-25T04:19:10.846Z,-0.76
2022-11-25T04:21:39.711Z,-0.80
2022-11-25T04:24:09.306Z,-0.76
2022-11-25T04:26:37.796Z,-0.77
2022-11-25T04:29:06.206Z,-0.71
2022-11-25T04:31:35.575Z,-0.66
2022-11-25T04:34:06.223Z,-0.65
2022-11-25T04:36:35.894Z,-0.53
2022-11-25T04:39:05.079Z,-0.52
2022-11-25T04:41:34.757Z,-0.60
2022-11-25T04:44:03.562Z,-0.61
2022-11-25T04:46:39.076Z,-0.68
2022-11-25T04:49:09.539Z,-0.76
2022-11-25T04:51:39.230Z,-0.77
2022-11-25T04:54:09.668Z,-0.84
2022-11-25T04:56:41.080Z,-0.81
2022-11-25T04:59:27.821Z,-0.87
2022-11-25T05:01:56.194Z,-0.84
2022-11-25T05:04:39.263Z,-0.89
2022-11-25T05:07:07.658Z,-0.94
2022-11-25T05:09:36.575Z,-0.92
2022-11-25T05:12:20.944Z,-0.84
2022-11-25T05:14:50.193Z,-0.84
2022-11-25T05:17:21.119Z,-0.86
2022-11-25T05:19:52.368Z,-0.85
2022-11-25T05:22:23.990Z,-0.80
2022-11-25T05:24:53.534Z,-0.79
2022-11-25T05:27:23.178Z,-0.76
2022-11-25T05:29:56.022Z,-0.78
2022-11-25T05:32:25.909Z,-0.80
2022-11-25T05:34:57.747Z,-0.84
2022-11-25T05:37:26.118Z,-0.79
2022-11-25T05:40:01.182Z,-0.82
2022-11-25T05:42:48.187Z,-0.80
2022-11-25T05:45:18.427Z,-0.78
2022-11-25T05:47:47.229Z,-0.83
2022-11-25T05:50:21.881Z,-0.79
2022-11-25T05:53:04.910Z,-0.76
2022-11-25T05:55:35.609Z,-0.74
2022-11-25T05:58:07.225Z,-0.78
2022-11-25T06:00:36.777Z,-0.77
2022-11-25T06:03:10.667Z,-0.69
2022-11-25T06:05:41.231Z,-0.62
2022-11-25T06:08:10.114Z,-0.57
2022-11-25T06:10:41.198Z,-0.52
2022-11-25T06:13:10.890Z,-0.48
2022-11-25T06:15:43.226Z,-0.60
2022-11-25T06:18:15.245Z,-0.59
2022-11-25T06:20:45.232Z,-0.62
2022-11-25T06:23:13.947Z,-0.63
2022-11-25T06:25:42.501Z,-0.64
2022-11-25T06:28:13.371Z,-0.75
2022-11-25T06:30:45.885Z,-0.79
2022-11-25T06:33:24.673Z,-0.84
2022-11-25T06:35:54.665Z,-0.85
2022-11-25T06:38:23.010Z,-0.93
2022-11-25T06:40:52.416Z,-0.86
2022-11-25T06:43:22.730Z,-0.87
2022-11-25T06:45:50.993Z,-0.89
2022-11-25T06:48:19.362Z,-0.89
2022-11-25T06:50:59.701Z,-0.91
2022-11-25T06:53:28.951Z,-0.94
2022-11-25T06:56:09.638Z,-0.96
2022-11-25T06:58:38.848Z,-0.94
2022-11-25T07:01:12.778Z,-0.88
2022-11-25T07:03:41.924Z,-0.85
2022-11-25T07:06:14.005Z,-0.69
2022-11-25T07:08:43.084Z,-0.65
2022-11-25T07:11:17.203Z,-0.55
2022-11-25T07:13:46.097Z,-0.47
2022-11-25T07:16:15.939Z,-0.42
2022-11-25T07:18:45.529Z,-0.45
2022-11-25T07:21:18.495Z,-0.38
2022-11-25T07:23:48.163Z,-0.42
2022-11-25T07:26:21.624Z,-0.44
2022-11-25T07:28:51.164Z,-0.47
2022-11-25T07:31:24.567Z,-0.47
2022-11-25T07:33:55.884Z,-0.46
2022-11-25T07:36:26.851Z,-0.49
2022-11-25T07:38:55.927Z,-0.53
2022-11-25T07:41:27.342Z,-0.43
2022-11-25T07:43:58.689Z,-0.42
2022-11-25T07:46:29.912Z,-0.33
2022-11-25T07:49:00.755Z,-0.31
2022-11-25T07:51:33.422Z,-0.30
2022-11-25T07:54:04.521Z,-0.20
2022-11-25T07:56:35.540Z,-0.17
2022-11-25T07:59:04.661Z,-0.13
2022-11-25T08:01:33.331Z,-0.09
2022-11-25T08:04:01.657Z,-0.01
2022-11-25T08:06:31.760Z,-0.02
2022-11-25T08:09:00.139Z,0.00
2022-11-25T08:11:33.063Z,0.08
2022-11-25T08:14:01.535Z,0.16
2022-11-25T08:16:32.341Z,0.25
2022-11-25T08:19:03.129Z,0.31
2022-11-25T08:21:33.157Z,0.37
2022-11-25T08:24:03.066Z,0.31
2022-11-25T08:26:36.321Z,0.36
2022-11-25T08:29:06.857Z,0.30
2022-11-25T08:31:38.736Z,0.22
2022-11-25T08:34:08.407Z,0.36
2022-11-25T08:36:41.485Z,0.56
2022-11-25T08:39:36.191Z,0.69
2022-11-25T08:42:04.889Z,0.83
2022-11-25T08:44:33.281Z,0.77
2022-11-25T08:47:01.712Z,0.66
2022-11-25T08:49:34.986Z,0.62
2022-11-25T08:52:08.740Z,0.83
2022-11-25T08:54:37.422Z,0.88
2022-11-25T08:57:06.207Z,0.95
2022-11-25T08:59:35.362Z,1.15
2022-11-25T09:02:04.534Z,1.21
2022-11-25T09:04:33.736Z,1.37
2022-11-25T09:07:02.150Z,1.39
2022-11-25T09:09:32.662Z,1.26
2022-11-25T09:12:01.343Z,1.24
2022-11-25T09:14:29.734Z,1.37
2022-11-25T09:16:58.233Z,1.57
2022-11-25T09:19:26.634Z,1.46
2022-11-25T09:21:55.484Z,1.50
2022-11-25T09:24:24.084Z,1.64
2022-11-25T09:26:54.722Z,1.62
2022-11-25T09:29:23.079Z,1.77
2022-11-25T09:31:54.771Z,2.04
2022-11-25T09:34:23.591Z,2.21
2022-11-25T09:36:52.360Z,2.39
2022-11-25T09:39:21.115Z,2.58
2022-11-25T09:42:28.643Z,2.62
2022-11-25T09:45:34.613Z,2.88
2022-11-25T09:48:19.932Z,3.02
2022-11-25T09:51:09.575Z,2.85
2022-11-25T09:53:46.494Z,2.62
2022-11-25T09:56:29.559Z,2.59
2022-11-25T09:59:06.791Z,2.82
2022-11-25T10:01:47.629Z,2.81
2022-11-25T10:04:25.690Z,2.71
2022-11-25T10:07:01.138Z,2.74
2022-11-25T10:09:35.674Z,2.74
2022-11-25T10:12:14.717Z,2.90
2022-11-25T10:14:49.843Z,2.89
2022-11-25T10:17:32.189Z,3.19
2022-11-25T10:20:06.626Z,3.15
2022-11-25T10:22:40.259Z,2.90
2022-11-25T10:25:16.521Z,2.87
2022-11-25T10:27:51.067Z,2.91
2022-11-25T10:30:25.136Z,2.93
2022-11-25T10:33:02.495Z,3.05
2022-11-25T10:35:36.888Z,3.23
2022-11-25T10:38:18.652Z,3.59
2022-11-25T10:40:52.688Z,3.70
2022-11-25T10:43:21.326Z,3.77
2022-11-25T10:46:08.098Z,3.75
2022-11-25T10:49:01.444Z,3.94
2022-11-25T10:51:44.589Z,4.27
2022-11-25T10:54:26.893Z,4.37
2022-11-25T10:56:59.585Z,4.20
2022-11-25T10:59:32.284Z,3.88
2022-11-25T11:02:22.393Z,3.66
2022-11-25T11:04:56.990Z,3.42
2022-11-25T11:07:27.680Z,3.29
2022-11-25T11:10:17.515Z,3.18
2022-11-25T11:13:00.968Z,3.16
2022-11-25T11:15:32.195Z,3.09
2022-11-25T11:18:24.323Z,3.16
2022-11-25T11:20:55.817Z,3.04
2022-11-25T11:23:25.070Z,3.16
2022-11-25T11:26:01.407Z,3.47
2022-11-25T11:28:40.119Z,3.66
2022-11-25T11:31:19.117Z,3.77
2022-11-25T11:34:04.507Z,4.00
2022-11-25T11:36:54.179Z,4.11
2022-11-25T11:40:00.212Z,4.35
2022-11-25T11:42:39.566Z,4.53
2022-11-25T11:45:35.836Z,5.00
2022-11-25T11:48:13.649Z,5.44
2022-11-25T11:50:50.192Z,5.55
2022-11-25T11:53:31.404Z,5.93
2022-11-25T11:59:28.524Z,6.49
2022-11-25T12:02:17.716Z,6.03
2022-11-25T12:04:58.964Z,6.41
2022-11-25T12:07:37.625Z,6.79
2022-11-25T12:10:21.188Z,6.92
2022-11-25T12:12:56.062Z,7.29
2022-11-25T12:15:37.946Z,7.31
2022-11-25T12:18:21.024Z,6.17
2022-11-25T12:20:59.293Z,5.83
2022-11-25T12:23:44.251Z,5.49
2022-11-25T12:26:23.328Z,5.92
2022-11-25T12:28:58.610Z,5.69
2022-11-25T12:31:30.416Z,5.66
2022-11-25T12:34:10.536Z,5.78
2022-11-25T12:36:41.185Z,5.25
2022-11-25T12:39:26.569Z,5.07
2022-11-25T12:41:59.713Z,4.83
2022-11-25T12:44:37.075Z,4.53
2022-11-25T12:47:11.434Z,4.38
2022-11-25T12:49:44.872Z,4.50
2022-11-25T12:52:39.022Z,4.27
2022-11-25T12:55:16.354Z,4.30
2022-11-25T12:58:19.160Z,4.15
2022-11-25T13:01:38.201Z,4.09
2022-11-25T13:04:50.840Z,4.01
2022-11-25T13:07:45.031Z,4.06
2022-11-25T13:11:03.825Z,4.14
2022-11-25T13:13:51.877Z,4.23
2022-11-25T13:16:23.269Z,4.25
2022-11-25T13:18:52.847Z,4.32
2022-11-25T13:21:23.113Z,4.32
2022-11-25T13:23:56.340Z,4.30
2022-11-25T13:26:51.596Z,4.42
2022-11-25T13:30:02.886Z,4.42
2022-11-25T13:32:42.283Z,4.38
2022-11-25T13:35:38.926Z,4.52
2022-11-25T13:38:39.834Z,4.44
2022-11-25T13:41:35.214Z,4.43
2022-11-25T13:44:20.310Z,4.46
2022-11-25T13:46:52.587Z,4.49
2022-11-25T13:49:35.631Z,4.51
2022-11-25T13:52:37.222Z,4.53
2022-11-25T13:55:33.085Z,4.56
2022-11-25T13:58:23.516Z,4.57
2022-11-25T14:01:07.072Z,4.51
2022-11-25T14:04:05.871Z,4.45
2022-11-25T14:07:04.856Z,4.50
2022-11-25T14:09:54.370Z,4.50
2022-11-25T14:12:54.891Z,4.49
2022-11-25T14:16:10.590Z,4.45
2022-11-25T14:19:50.270Z,4.33
2022-11-25T14:22:35.780Z,4.27
2022-11-25T14:25:17.482Z,4.29
2022-11-25T14:27:49.905Z,4.17
2022-11-25T14:30:19.820Z,4.18
2022-11-25T14:32:57.877Z,4.14
2022-11-25T14:35:33.910Z,4.13
2022-11-25T14:38:07.846Z,4.17
2022-11-25T14:40:42.579Z,4.20
2022-11-25T14:43:18.131Z,4.23
2022-11-25T14:45:46.858Z,4.31
2022-11-25T14:48:18.813Z,4.33
2022-11-25T14:50:59.707Z,4.41
2022-11-25T14:53:29.818Z,4.45
2022-11-25T14:56:00.793Z,4.37
2022-11-25T14:58:29.390Z,4.33
2022-11-25T15:01:05.401Z,4.37
2022-11-25T15:03:35.297Z,4.35
2022-11-25T15:06:07.055Z,4.36
2022-11-25T15:08:41.047Z,4.38
2022-11-25T15:11:17.624Z,4.39
2022-11-25T15:13:48.719Z,4.41
2022-11-25T15:16:19.611Z,4.43
2022-11-25T15:18:54.190Z,4.43
2022-11-25T15:21:28.603Z,4.52
2022-11-25T15:23:57.394Z,4.51
2022-11-25T15:26:31.425Z,4.51
2022-11-25T15:29:02.365Z,4.46
2022-11-25T15:31:33.663Z,4.36
2022-11-25T15:34:08.032Z,4.34
2022-11-25T15:36:36.712Z,4.33
2022-11-25T15:39:25.374Z,4.27
2022-11-25T15:41:57.123Z,4.20
2022-11-25T15:44:28.527Z,4.18
2022-11-25T15:47:05.146Z,4.15
2022-11-25T15:49:37.347Z,4.17
2022-11-25T15:52:16.276Z,4.18
2022-11-25T15:54:48.016Z,4.17
2022-11-25T15:57:20.638Z,4.13
2022-11-25T16:00:03.391Z,4.09
2022-11-25T16:02:53.037Z,4.08
2022-11-25T16:05:37.041Z,4.04
2022-11-25T16:08:33.530Z,4.03
2022-11-25T16:11:15.396Z,4.02
2022-11-25T16:13:44.364Z,4.02
2022-11-25T16:16:25.098Z,3.99
2022-11-25T16:19:17.841Z,4.03
2022-11-25T16:21:57.775Z,4.02
2022-11-25T16:24:42.675Z,4.05
2022-11-25T16:27:22.865Z,4.06
2022-11-25T16:29:58.439Z,4.03
2022-11-25T16:32:30.291Z,4.03
2022-11-25T16:35:13.572Z,4.00
2022-11-25T16:37:48.572Z,4.01
2022-11-25T16:40:19.801Z,3.96
2022-11-25T16:42:50.834Z,3.94
2022-11-25T16:45:23.959Z,3.88
2022-11-25T16:47:52.358Z,3.86
2022-11-25T16:50:22.750Z,3.89
2022-11-25T16:52:52.464Z,3.88
2022-11-25T16:55:20.918Z,3.84
2022-11-25T16:57:50.646Z,3.88
2022-11-25T17:00:20.016Z,3.90
2022-11-25T17:02:48.672Z,3.94
2022-11-25T17:05:21.244Z,3.95
2022-11-25T17:07:53.383Z,3.92
2022-11-25T17:10:22.859Z,3.90
2022-11-25T17:12:51.683Z,3.88
2022-11-25T17:15:29.292Z,3.89
2022-11-25T17:17:58.063Z,3.91
2022-11-25T17:20:26.995Z,3.89
2022-11-25T17:22:58.140Z,3.84
2022-11-25T17:25:33.845Z,3.78
2022-11-25T17:28:05.832Z,3.79
2022-11-25T17:30:34.551Z,3.81
2022-11-25T17:33:06.561Z,3.84
2022-11-25T17:35:35.294Z,3.86
2022-11-25T17:38:14.454Z,3.90
2022-11-25T17:40:44.622Z,3.93
2022-11-25T17:43:18.671Z,3.97
2022-11-25T17:45:48.160Z,3.96
2022-11-25T17:48:18.947Z,3.96
2022-11-25T17:50:47.946Z,3.90
2022-11-25T17:53:18.072Z,3.79
2022-11-25T17:55:46.782Z,3.63
2022-11-25T17:58:16.062Z,3.38
2022-11-25T18:00:45.070Z,3.15
2022-11-25T18:03:17.057Z,2.94
2022-11-25T18:05:46.149Z,2.91
2022-11-25T18:08:14.472Z,2.89
2022-11-25T18:10:47.742Z,3.04
2022-11-25T18:13:18.156Z,3.07
2022-11-25T18:15:46.875Z,3.10
2022-11-25T18:18:22.455Z,3.00
2022-11-25T18:20:51.131Z,2.98
2022-11-25T18:23:20.617Z,2.93
2022-11-25T18:25:50.924Z,2.82
2022-11-25T18:28:24.190Z,2.63
2022-11-25T18:30:55.863Z,2.51
2022-11-25T18:33:24.426Z,2.51
2022-11-25T18:35:53.176Z,2.75
2022-11-25T18:38:21.812Z,2.79
2022-11-25T18:40:54.051Z,2.78
2022-11-25T18:43:26.917Z,2.73
2022-11-25T18:45:57.203Z,2.72
2022-11-25T18:48:28.257Z,2.78
2022-11-25T18:50:57.453Z,2.75
2022-11-25T18:53:25.851Z,2.71
2022-11-25T18:55:55.690Z,2.68
2022-11-25T18:58:28.069Z,2.61
2022-11-25T19:01:02.623Z,2.58
2022-11-25T19:03:31.450Z,2.54
2022-11-25T19:06:01.543Z,2.61
2022-11-25T19:08:30.346Z,2.46
2022-11-25T19:10:59.981Z,2.34
2022-11-25T19:13:33.875Z,2.38
2022-11-25T19:16:08.974Z,2.53
2022-11-25T19:18:38.056Z,2.75
2022-11-25T19:21:06.908Z,2.88
2022-11-25T19:23:36.183Z,2.90
2022-11-25T19:26:14.773Z,2.85
2022-11-25T19:28:44.334Z,2.76
2022-11-25T19:31:14.454Z,2.75
2022-11-25T19:33:46.457Z,2.74
2022-11-25T19:36:22.177Z,2.65
2022-11-25T19:38:51.184Z,2.51
2022-11-25T19:41:21.244Z,2.48
2022-11-25T19:43:49.925Z,2.54
2022-11-25T19:46:30.130Z,2.41
2022-11-25T19:49:07.090Z,2.10
2022-11-25T19:51:36.556Z,1.80
2022-11-25T19:54:05.519Z,1.55
2022-11-25T19:56:37.591Z,1.40
2022-11-25T19:59:06.033Z,1.25
2022-11-25T20:01:39.014Z,1.14
2022-11-25T20:04:09.596Z,0.96
2022-11-25T20:06:38.317Z,0.89
2022-11-25T20:09:12.535Z,0.75
2022-11-25T20:11:43.219Z,0.68
2022-11-25T20:14:12.372Z,0.75
2022-11-25T20:16:43.105Z,0.70
2022-11-25T20:19:18.867Z,0.80
2022-11-25T20:21:48.636Z,0.95
2022-11-25T20:24:20.794Z,1.08
2022-11-25T20:26:51.565Z,1.20
2022-11-25T20:29:27.501Z,1.26
2022-11-25T20:31:59.222Z,1.42
2022-11-25T20:34:28.414Z,1.87
2022-11-25T20:36:57.213Z,2.20
2022-11-25T20:39:26.050Z,2.33
2022-11-25T20:41:55.754Z,2.37
2022-11-25T20:44:24.596Z,2.29
2022-11-25T20:46:53.392Z,2.29
2022-11-25T20:49:27.554Z,2.24
2022-11-25T20:51:56.190Z,2.03
2022-11-25T20:54:25.038Z,1.90
2022-11-25T20:56:55.673Z,1.89
2022-11-25T20:59:26.330Z,1.87
2022-11-25T21:01:55.148Z,1.92
2022-11-25T21:04:23.766Z,1.84
2022-11-25T21:06:52.345Z,1.78
2022-11-25T21:09:26.047Z,1.74
2022-11-25T21:11:54.599Z,1.74
2022-11-25T21:14:24.644Z,1.81
2022-11-25T21:16:53.018Z,1.99
2022-11-25T21:19:21.405Z,2.18
2022-11-25T21:21:52.020Z,2.32
2022-11-25T21:24:33.120Z,2.35
2022-11-25T21:27:09.913Z,2.36
2022-11-25T21:29:44.808Z,2.44
2022-11-25T21:32:22.934Z,2.46
2022-11-25T21:34:52.461Z,2.45
2022-11-25T21:37:30.877Z,2.42
2022-11-25T21:40:00.472Z,2.45
2022-11-25T21:42:31.187Z,2.44
2022-11-25T21:45:01.143Z,2.40
2022-11-25T21:47:31.623Z,2.36
2022-11-25T21:50:00.427Z,2.33
2022-11-25T21:52:29.221Z,2.30
2022-11-25T21:54:57.838Z,2.30
2022-11-25T21:57:30.151Z,2.23
2022-11-25T22:00:00.097Z,2.22
2022-11-25T22:02:28.676Z,2.21
2022-11-25T22:04:58.904Z,2.24
2022-11-25T22:07:30.784Z,2.27
2022-11-25T22:09:59.794Z,2.25
2022-11-25T22:12:35.388Z,2.29
2022-11-25T22:15:14.805Z,2.28
2022-11-25T22:17:43.500Z,2.30
2022-11-25T22:20:25.537Z,2.31
2022-11-25T22:22:54.242Z,2.34
2022-11-25T22:25:25.560Z,2.36
2022-11-25T22:27:54.618Z,2.35
2022-11-25T22:30:25.633Z,2.32
2022-11-25T22:33:01.907Z,2.33
2022-11-25T22:35:30.834Z,2.33
2022-11-25T22:37:59.219Z,2.31
2022-11-25T22:40:27.739Z,2.31
2022-11-25T22:42:57.481Z,2.33
2022-11-25T22:45:32.997Z,2.32
2022-11-25T22:48:06.081Z,2.32
2022-11-25T22:50:36.065Z,2.37
2022-11-25T22:53:04.472Z,2.42
2022-11-25T22:55:34.431Z,2.41
2022-11-25T22:58:04.580Z,2.48
2022-11-25T23:00:37.319Z,2.42
2022-11-25T23:03:14.167Z,2.44
2022-11-25T23:05:42.439Z,2.44
2022-11-25T23:08:15.596Z,2.44
2022-11-25T23:10:44.277Z,2.47
2022-11-25T23:13:17.068Z,2.52
2022-11-25T23:15:54.124Z,2.53
2022-11-25T23:18:28.035Z,2.53
2022-11-25T23:20:56.489Z,2.58
2022-11-25T23:23:27.653Z,2.62
2022-11-25T23:25:57.964Z,2.72
2022-11-25T23:28:26.646Z,2.79
2022-11-25T23:31:01.669Z,2.77
2022-11-25T23:33:37.032Z,2.80
2022-11-25T23:36:10.591Z,2.84
2022-11-25T23:38:45.106Z,2.90
2022-11-25T23:41:18.954Z,2.92
2022-11-25T23:43:47.624Z,2.94
2022-11-25T23:46:20.665Z,2.94
2022-11-25T23:48:56.843Z,2.92
2022-11-25T23:51:28.230Z,2.90
2022-11-25T23:53:59.085Z,2.89
2022-11-25T23:56:29.603Z,2.87
2022-11-25T23:58:57.921Z,2.86
